Terminal Aerodrome Forecast
Issued by NWS

Home | Current Version | Previous Version | Text Only | Print | Product List | Glossary On
Versions: 1 2 3 4 5 6 7 8 9 10 11 12 13 14 15
000
FTUS42 KMLB 071720
TAFSUA
TAF
KSUA 071720Z 0718/0818 30005KT P6SM SKC
     FM072100 03006KT P6SM FEW035
     FM080000 VRB03KT P6SM BKN250
     FM080900 VRB03KT 5SM BR SCT010
     FM081500 34007KT P6SM SCT060 BKN250=

USA.gov is the U.S. government's official web portal to all federal, state and local government web resources and services.